createdAt,value
2023-05-21T00:04:36.284Z,100436
2023-05-21T00:10:29.168Z,100443
2023-05-21T00:16:21.052Z,100437
2023-05-21T00:22:13.613Z,100429
2023-05-21T00:28:06.157Z,100420
2023-05-21T00:33:58.368Z,100422
2023-05-21T00:39:51.104Z,100408
2023-05-21T00:45:46.205Z,100405
2023-05-21T00:51:40.821Z,100397
2023-05-21T00:57:33.390Z,100400
2023-05-21T01:03:25.672Z,100386
2023-05-21T01:09:18.061Z,100397
2023-05-21T01:15:10.062Z,100400
2023-05-21T01:21:03.294Z,100397
2023-05-21T01:26:55.203Z,100394
2023-05-21T01:32:48.169Z,100385
2023-05-21T01:38:41.027Z,100380
2023-05-21T01:44:33.549Z,100391
2023-05-21T01:50:25.420Z,100404
2023-05-21T01:56:18.290Z,100391
2023-05-21T02:02:11.293Z,100394
2023-05-21T02:08:03.726Z,100385
2023-05-21T02:13:55.673Z,100392
2023-05-21T02:19:47.340Z,100377
2023-05-21T02:25:40.147Z,100382
2023-05-21T02:31:32.051Z,100368
2023-05-21T02:37:23.033Z,100369
2023-05-21T02:43:17.906Z,100377
2023-05-21T02:49:09.973Z,100375
2023-05-21T02:55:02.646Z,100374
2023-05-21T03:00:54.465Z,100377
2023-05-21T03:06:46.831Z,100371
2023-05-21T03:12:38.895Z,100373
2023-05-21T03:18:30.809Z,100364
2023-05-21T03:24:23.806Z,100362
2023-05-21T03:30:16.042Z,100359
2023-05-21T03:36:07.852Z,100348
2023-05-21T03:41:59.891Z,100352
2023-05-21T03:47:53.340Z,100349
2023-05-21T03:53:45.433Z,100347
2023-05-21T03:59:38.736Z,100349
2023-05-21T04:05:31.363Z,100346
2023-05-21T04:11:24.357Z,100354
2023-05-21T04:17:16.535Z,100350
2023-05-21T04:23:08.948Z,100363
2023-05-21T04:29:00.831Z,100356
2023-05-21T04:34:52.900Z,100357
2023-05-21T04:40:44.765Z,100352
2023-05-21T04:46:39.618Z,100366
2023-05-21T04:52:32.373Z,100370
2023-05-21T04:58:25.423Z,100371
2023-05-21T05:04:18.041Z,100376
2023-05-21T05:10:09.718Z,100384
2023-05-21T05:16:02.183Z,100372
2023-05-21T05:21:54.027Z,100370
2023-05-21T05:27:46.192Z,100367
2023-05-21T05:33:38.950Z,100361
2023-05-21T05:39:30.865Z,100357
2023-05-21T05:45:22.740Z,100361
2023-05-21T05:51:15.073Z,100369
2023-05-21T05:57:06.819Z,100379
2023-05-21T06:02:58.980Z,100362
2023-05-21T06:08:51.300Z,100356
2023-05-21T06:14:48.119Z,100363
2023-05-21T06:20:40.146Z,100362
2023-05-21T06:26:31.707Z,100365
2023-05-21T06:32:23.920Z,100357
2023-05-21T06:38:17.228Z,100355
2023-05-21T06:44:11.549Z,100359
2023-05-21T06:50:04.037Z,100359
2023-05-21T06:55:56.662Z,100356
2023-05-21T07:01:49.284Z,100363
2023-05-21T07:07:41.446Z,100367
2023-05-21T07:13:33.345Z,100362
2023-05-21T07:19:26.461Z,100366
2023-05-21T07:25:18.632Z,100351
2023-05-21T07:31:10.855Z,100360
2023-05-21T07:37:03.154Z,100355
2023-05-21T07:42:55.115Z,100352
2023-05-21T07:48:47.150Z,100351
2023-05-21T07:54:39.977Z,100353
2023-05-21T08:00:36.628Z,100353
2023-05-21T08:06:33.644Z,100353
2023-05-21T08:12:28.407Z,100350
2023-05-21T08:18:22.917Z,100344
2023-05-21T08:24:17.087Z,100340
2023-05-21T08:30:08.669Z,100339
2023-05-21T08:36:01.107Z,100332
2023-05-21T08:41:57.608Z,100334
2023-05-21T08:47:52.299Z,100331
2023-05-21T08:54:50.794Z,100346
2023-05-21T09:00:42.768Z,100340
2023-05-21T09:06:34.512Z,100343
2023-05-21T09:12:27.035Z,100345
2023-05-21T09:18:19.611Z,100339
2023-05-21T09:24:11.463Z,100327
2023-05-21T09:30:03.780Z,100318
2023-05-21T09:35:55.737Z,100325
2023-05-21T09:41:47.718Z,100317
2023-05-21T09:47:39.297Z,100312
2023-05-21T09:53:30.894Z,100313
2023-05-21T09:59:23.808Z,100311
2023-05-21T10:05:15.524Z,100296
2023-05-21T10:11:09.989Z,100306
2023-05-21T10:17:02.573Z,100300
2023-05-21T10:22:54.958Z,100290
2023-05-21T10:28:47.086Z,100278
2023-05-21T10:34:39.220Z,100270
2023-05-21T10:40:31.673Z,100277
2023-05-21T10:46:24.990Z,100269
2023-05-21T10:52:18.735Z,100243
2023-05-21T10:58:11.326Z,100255
2023-05-21T11:04:07.090Z,100237
2023-05-21T11:09:58.697Z,100240
2023-05-21T11:15:51.319Z,100248
2023-05-21T11:21:42.749Z,100238
2023-05-21T11:27:35.086Z,100236
2023-05-21T11:33:27.216Z,100230
2023-05-21T11:39:19.269Z,100216
2023-05-21T11:45:11.888Z,100218
2023-05-21T11:51:03.200Z,100215
2023-05-21T11:56:54.769Z,100218
2023-05-21T12:03:56.099Z,100216
2023-05-21T12:09:45.713Z,100208
2023-05-21T12:15:37.261Z,100196
2023-05-21T12:21:28.752Z,100205
2023-05-21T12:27:20.244Z,100200
2023-05-21T12:33:11.763Z,100197
2023-05-21T12:39:03.225Z,100194
2023-05-21T12:44:54.027Z,100195
2023-05-21T12:50:45.670Z,100192
2023-05-21T12:56:37.744Z,100180
2023-05-21T13:02:29.990Z,100182
2023-05-21T13:08:21.140Z,100181
2023-05-21T13:14:12.142Z,100177
2023-05-21T13:20:03.715Z,100167
2023-05-21T13:25:55.738Z,100163
2023-05-21T13:31:47.061Z,100156
2023-05-21T13:37:37.942Z,100154
2023-05-21T13:43:29.922Z,100149
2023-05-21T13:49:22.090Z,100144
2023-05-21T13:55:14.325Z,100137
2023-05-21T14:01:06.803Z,100140
2023-05-21T14:06:58.691Z,100132
2023-05-21T14:12:50.752Z,100135
2023-05-21T14:18:48.792Z,100135
2023-05-21T14:24:40.712Z,100136
2023-05-21T14:30:33.364Z,100135
2023-05-21T14:36:25.398Z,100138
2023-05-21T14:42:17.765Z,100132
2023-05-21T14:48:10.415Z,100130
2023-05-21T14:54:02.804Z,100127
2023-05-21T14:59:54.808Z,100129
2023-05-21T15:05:46.547Z,100125
2023-05-21T15:11:37.909Z,100126
2023-05-21T15:17:30.211Z,100120
2023-05-21T15:23:22.444Z,100118
2023-05-21T15:29:13.959Z,100121
2023-05-21T15:35:07.223Z,100109
2023-05-21T15:40:59.329Z,100107
2023-05-21T15:46:51.992Z,100107
2023-05-21T15:52:44.796Z,100105
2023-05-21T15:58:38.827Z,100099
2023-05-21T16:04:30.138Z,100097
2023-05-21T16:10:22.295Z,100086
2023-05-21T16:16:14.300Z,100099
2023-05-21T16:22:07.118Z,100090
2023-05-21T16:28:00.925Z,100091
2023-05-21T16:33:53.325Z,100085
2023-05-21T16:39:44.488Z,100080
2023-05-21T16:45:36.171Z,100085
2023-05-21T16:51:28.768Z,100090
2023-05-21T16:57:21.381Z,100094
2023-05-21T17:03:13.484Z,100112
2023-05-21T17:09:06.059Z,100114
2023-05-21T17:14:57.680Z,100118
2023-05-21T17:20:50.143Z,100125
2023-05-21T17:26:39.983Z,100123
2023-05-21T17:32:29.872Z,100126
2023-05-21T17:38:19.940Z,100119
2023-05-21T17:44:10.067Z,100126
2023-05-21T17:50:02.266Z,100139
2023-05-21T17:55:53.912Z,100138
2023-05-21T18:01:46.114Z,100133
2023-05-21T18:07:38.826Z,100131
2023-05-21T18:13:30.577Z,100130
2023-05-21T18:19:23.136Z,100138
2023-05-21T18:25:15.727Z,100136
2023-05-21T18:31:08.159Z,100137
2023-05-21T18:37:00.230Z,100137
2023-05-21T18:42:51.976Z,100137
2023-05-21T18:48:44.046Z,100143
2023-05-21T18:54:36.056Z,100141
2023-05-21T19:00:27.909Z,100133
2023-05-21T19:06:19.665Z,100133
2023-05-21T19:12:11.314Z,100145
2023-05-21T19:18:03.535Z,100151
2023-05-21T19:23:57.153Z,100155
2023-05-21T19:29:49.288Z,100156
2023-05-21T19:35:42.359Z,100156
2023-05-21T19:41:34.407Z,100155
2023-05-21T19:47:26.415Z,100157
2023-05-21T19:53:18.632Z,100166
2023-05-21T19:59:11.035Z,100167
2023-05-21T20:05:03.818Z,100172
2023-05-21T20:10:56.426Z,100172
2023-05-21T20:16:48.925Z,100172
2023-05-21T20:22:41.029Z,100175
2023-05-21T20:28:33.182Z,100172
2023-05-21T20:34:25.409Z,100164
2023-05-21T20:40:18.952Z,100172
2023-05-21T20:46:11.553Z,100167
2023-05-21T20:52:02.932Z,100168
2023-05-21T20:57:55.054Z,100166
2023-05-21T21:03:49.070Z,100167
2023-05-21T21:09:43.140Z,100163
2023-05-21T21:15:36.048Z,100166
2023-05-21T21:21:28.929Z,100165
2023-05-21T21:27:20.925Z,100158
2023-05-21T21:33:13.868Z,100162
2023-05-21T21:39:07.888Z,100166
2023-05-21T21:45:00.205Z,100164
2023-05-21T21:50:52.786Z,100163
2023-05-21T21:56:44.472Z,100162
2023-05-21T22:02:38.528Z,100164
2023-05-21T22:08:29.988Z,100164
2023-05-21T22:14:22.526Z,100159
2023-05-21T22:20:14.886Z,100156
2023-05-21T22:26:06.761Z,100157
2023-05-21T22:31:59.473Z,100159
2023-05-21T22:37:51.420Z,100155
2023-05-21T22:43:44.039Z,100160
2023-05-21T22:49:35.913Z,100158
2023-05-21T22:55:28.894Z,100161
2023-05-21T23:01:21.503Z,100153
2023-05-21T23:07:13.986Z,100159
2023-05-21T23:13:07.085Z,100163
2023-05-21T23:18:59.616Z,100172
2023-05-21T23:24:53.784Z,100171
2023-05-21T23:30:45.672Z,100176
2023-05-21T23:36:36.388Z,100169
2023-05-21T23:42:28.496Z,100177
2023-05-21T23:48:21.187Z,100161
2023-05-21T23:55:21.808Z,100171
